Time;durP1;ratioP1;P1;durP2;ratioP2;P2;SDS_P1;SDS_P2;PMS_P1;PMS_P2;Temp;Humidity;BMP_temperature;BMP_pressure;BME280_temperature;BME280_humidity;BME280_pressure;Samples;Min_cycle;Max_cycle;Signal;HPM_P1;HPM_P2
2022/11/11 00:00:39;;;;;;;23.33;8.30;;;11.00;59.80;;;;;;5097103;28;20495;-90
2022/11/11 00:03:24;;;;;;;20.30;7.90;;;11.10;59.70;;;;;;5084403;28;20469;-86
2022/11/11 00:06:13;;;;;;;26.93;7.90;;;11.20;59.60;;;;;;5082415;28;20439;-87
2022/11/11 00:08:59;;;;;;;16.33;8.37;;;11.30;59.60;;;;;;5098464;28;20475;-87
2022/11/11 00:11:45;;;;;;;26.50;8.30;;;11.40;59.40;;;;;;5098588;28;20444;-88
2022/11/11 00:14:30;;;;;;;123.80;14.50;;;11.40;59.20;;;;;;5094832;28;20447;-90
2022/11/11 00:26:29;;;;;;;17.10;7.87;;;11.10;60.10;;;;;;5088684;28;20449;-87
2022/11/11 00:29:15;;;;;;;73.10;8.80;;;11.30;60.30;;;;;;5102959;28;20836;-91
2022/11/11 00:38:10;;;;;;;38.70;7.67;;;10.80;61.60;;;;;;5081418;28;20500;-87
2022/11/11 00:40:57;;;;;;;9.87;6.27;;;11.00;60.70;;;;;;5099338;28;20449;-88
2022/11/11 00:43:44;;;;;;;8.77;6.13;;;11.00;60.00;;;;;;5080847;28;20986;-91
2022/11/11 00:52:45;;;;;;;35.53;8.83;;;11.10;59.60;;;;;;5098913;28;20462;-89
2022/11/11 00:55:31;;;;;;;53.30;9.07;;;10.70;60.60;;;;;;5095756;28;21068;-91
2022/11/11 00:58:18;;;;;;;23.27;8.17;;;10.20;63.10;;;;;;5100285;28;20446;-91
2022/11/11 01:01:04;;;;;;;27.00;8.40;;;10.40;63.60;;;;;;5078509;28;21321;-91
2022/11/11 01:03:49;;;;;;;15.40;6.73;;;10.70;62.30;;;;;;5101525;28;21119;-88
2022/11/11 01:06:36;;;;;;;47.00;9.47;;;10.90;61.00;;;;;;5097028;28;20534;-91
2022/11/11 01:09:22;;;;;;;63.30;10.93;;;10.90;60.70;;;;;;5101512;28;20474;-91
2022/11/11 01:12:07;;;;;;;31.10;8.03;;;11.00;60.50;;;;;;5097498;28;20542;-89
2022/11/11 01:14:54;;;;;;;81.30;10.67;;;10.80;61.50;;;;;;5103113;28;20674;-93
2022/11/11 01:17:40;;;;;;;22.70;7.50;;;11.00;61.10;;;;;;5095690;28;20455;-88
2022/11/11 01:20:26;;;;;;;35.73;9.50;;;11.00;61.30;;;;;;5080222;28;20464;-88
2022/11/11 01:23:13;;;;;;;95.63;10.30;;;11.10;61.10;;;;;;5100105;28;20471;-89
2022/11/11 01:26:02;;;;;;;66.37;8.50;;;11.10;61.20;;;;;;5101943;28;20453;-88
2022/11/11 01:28:49;;;;;;;36.53;6.63;;;11.10;61.40;;;;;;5106888;27;20481;-87
2022/11/11 01:31:36;;;;;;;33.73;7.07;;;11.10;61.80;;;;;;5087482;28;20938;-88
2022/11/11 01:34:22;;;;;;;30.00;7.33;;;11.20;60.20;;;;;;5100529;28;20447;-87
2022/11/11 01:37:08;;;;;;;78.87;8.20;;;11.20;60.60;;;;;;5099029;28;20447;-87
2022/11/11 01:39:53;;;;;;;26.73;5.70;;;11.20;59.60;;;;;;5098500;28;20442;-87
2022/11/11 01:42:53;;;;;;;9.33;5.00;;;11.10;60.50;;;;;;5103734;28;20466;-88
2022/11/11 01:45:53;;;;;;;10.90;4.90;;;11.20;60.90;;;;;;5098845;28;20462;-90
2022/11/11 01:51:52;;;;;;;17.70;5.23;;;11.20;59.80;;;;;;5100647;28;20812;-91
2022/11/11 01:54:41;;;;;;;20.60;6.53;;;11.30;59.70;;;;;;5099546;28;20450;-89
2022/11/11 01:57:34;;;;;;;27.60;5.67;;;11.30;59.40;;;;;;5105783;28;20450;-90
2022/11/11 02:00:21;;;;;;;13.50;6.47;;;11.30;59.60;;;;;;5098686;28;21292;-87
2022/11/11 02:03:09;;;;;;;27.77;6.60;;;11.30;59.80;;;;;;5083529;28;20489;-87
2022/11/11 02:05:56;;;;;;;26.73;6.70;;;11.10;60.40;;;;;;5098582;28;20466;-87
2022/11/11 02:08:43;;;;;;;23.13;6.77;;;11.10;60.70;;;;;;5103033;28;20530;-88
2022/11/11 02:14:41;;;;;;;37.40;7.23;;;11.30;59.90;;;;;;5098675;28;20487;-88
2022/11/11 02:17:30;;;;;;;43.80;9.20;;;11.20;60.40;;;;;;5099087;28;20495;-88
2022/11/11 02:20:20;;;;;;;46.40;8.30;;;10.50;61.40;;;;;;5098904;28;20444;-87
2022/11/11 02:23:11;;;;;;;109.60;11.20;;;10.60;62.40;;;;;;5097529;28;20475;-88
2022/11/11 02:25:59;;;;;;;24.30;5.50;;;10.70;61.60;;;;;;5081540;28;20454;-92
2022/11/11 02:28:46;;;;;;;58.07;8.60;;;10.80;61.10;;;;;;5087065;28;20942;-89
2022/11/11 02:31:32;;;;;;;91.80;11.43;;;10.90;60.90;;;;;;5099205;28;20581;-89
2022/11/11 02:34:18;;;;;;;27.13;7.67;;;10.60;61.20;;;;;;5095072;28;20455;-87
2022/11/11 02:37:06;;;;;;;18.53;6.50;;;10.80;61.50;;;;;;5079764;28;20457;-90
2022/11/11 02:39:59;;;;;;;42.60;7.70;;;10.90;61.90;;;;;;5080730;28;20495;-88
2022/11/11 02:42:46;;;;;;;71.97;9.70;;;10.90;61.50;;;;;;5098148;28;20470;-88
2022/11/11 02:45:32;;;;;;;77.20;9.77;;;10.90;61.30;;;;;;5097311;28;20455;-87
2022/11/11 02:48:17;;;;;;;13.87;5.47;;;11.00;61.20;;;;;;5102752;28;20459;-87
2022/11/11 02:51:04;;;;;;;20.93;6.70;;;10.90;61.40;;;;;;5102782;28;20443;-90
2022/11/11 02:53:50;;;;;;;29.13;6.67;;;11.10;61.50;;;;;;5098819;28;20485;-89
2022/11/11 02:59:41;;;;;;;40.77;8.57;;;11.00;61.10;;;;;;5084702;28;20518;-88
2022/11/11 03:02:26;;;;;;;53.70;8.00;;;11.00;60.80;;;;;;5100249;28;20492;-90
2022/11/11 03:05:12;;;;;;;15.47;6.80;;;11.10;60.60;;;;;;5101458;28;20458;-88
2022/11/11 03:07:57;;;;;;;37.23;6.40;;;11.10;60.10;;;;;;5102724;28;20485;-87
2022/11/11 03:10:43;;;;;;;14.83;5.30;;;11.20;60.00;;;;;;5097932;28;20526;-88
2022/11/11 03:13:28;;;;;;;23.97;5.23;;;11.10;59.90;;;;;;5089184;28;20730;-94
2022/11/11 03:17:38;;;;;;;53.27;7.93;;;11.10;59.80;;;;;;5098597;28;20451;-88
2022/11/11 03:19:31;;;;;;;45.73;7.33;;;11.10;59.80;;;;;;5096340;28;20442;-91
2022/11/11 03:22:17;;;;;;;11.40;6.47;;;10.90;59.80;;;;;;5065046;28;20463;-88
2022/11/11 03:28:07;;;;;;;29.73;7.13;;;10.80;60.30;;;;;;5078689;28;20469;-87
2022/11/11 03:30:53;;;;;;;30.20;6.40;;;10.70;61.30;;;;;;5105850;28;20539;-88
2022/11/11 03:33:40;;;;;;;21.47;6.73;;;10.80;61.90;;;;;;5081844;28;20474;-88
2022/11/11 03:38:14;;;;;;;46.67;7.30;;;10.70;62.00;;;;;;5086004;28;20540;-89
2022/11/11 03:39:30;;;;;;;30.80;7.07;;;10.80;62.20;;;;;;5089121;28;20430;-87
2022/11/11 03:42:16;;;;;;;52.53;7.90;;;10.70;61.80;;;;;;5068764;28;20462;-90
2022/11/11 03:45:02;;;;;;;24.83;7.87;;;10.70;61.70;;;;;;5079059;28;20764;-88
2022/11/11 03:47:48;;;;;;;33.40;8.10;;;10.40;62.70;;;;;;5080355;28;20886;-87
2022/11/11 03:50:35;;;;;;;46.57;7.40;;;10.70;62.60;;;;;;5080040;28;20473;-90
2022/11/11 03:53:21;;;;;;;12.10;5.03;;;10.90;61.80;;;;;;5085213;28;20470;-87
2022/11/11 03:56:07;;;;;;;123.57;12.20;;;10.80;60.60;;;;;;5072297;28;20451;-88
2022/11/11 03:58:53;;;;;;;47.77;7.80;;;10.40;61.50;;;;;;5068574;28;20449;-87
2022/11/11 04:10:53;;;;;;;21.20;9.17;;;10.10;63.50;;;;;;5097572;28;20463;-90
2022/11/11 04:16:43;;;;;;;41.10;7.93;;;10.30;62.40;;;;;;5081012;28;20511;-92
2022/11/11 04:22:48;;;;;;;60.23;8.03;;;9.90;64.90;;;;;;5053387;28;20465;-90
2022/11/11 04:25:48;;;;;;;15.33;6.57;;;10.00;63.80;;;;;;5044707;28;20484;-88
2022/11/11 04:32:34;;;;;;;49.70;9.30;;;10.50;62.50;;;;;;5080871;28;20438;-88
2022/11/11 04:34:45;;;;;;;15.30;6.73;;;10.30;62.10;;;;;;5081430;28;20472;-91
2022/11/11 04:37:32;;;;;;;17.87;7.00;;;10.30;62.90;;;;;;5085668;28;20465;-90
2022/11/11 04:43:23;;;;;;;30.43;6.63;;;10.00;62.90;;;;;;5069850;28;20525;-87
2022/11/11 04:46:07;;;;;;;9.23;6.57;;;10.10;63.40;;;;;;5070846;28;20459;-90
2022/11/11 04:48:53;;;;;;;35.37;7.73;;;10.20;63.20;;;;;;5068122;28;20447;-93
2022/11/11 04:57:44;;;;;;;73.43;15.37;;;10.20;63.50;;;;;;5079663;28;20443;-89
2022/11/11 05:00:30;;;;;;;33.73;7.90;;;10.30;63.00;;;;;;5077362;28;20439;-92
2022/11/11 05:03:17;;;;;;;31.83;8.10;;;10.40;63.10;;;;;;5093479;28;20501;-88
2022/11/11 05:09:06;;;;;;;18.53;8.00;;;10.30;62.50;;;;;;5076353;28;20453;-88
2022/11/11 05:11:52;;;;;;;66.20;8.80;;;10.30;63.10;;;;;;5058725;28;20444;-85
2022/11/11 05:27:02;;;;;;;29.40;7.43;;;10.90;61.60;;;;;;5029842;28;20990;-87
2022/11/11 05:29:49;;;;;;;17.10;9.03;;;10.70;61.50;;;;;;5078655;28;20536;-88
2022/11/11 05:32:35;;;;;;;28.90;9.73;;;10.60;61.90;;;;;;5067744;28;20479;-91
2022/11/11 05:35:21;;;;;;;27.40;7.13;;;10.50;62.70;;;;;;5067406;28;20459;-89
2022/11/11 05:38:21;;;;;;;24.27;7.73;;;10.30;62.10;;;;;;5077978;28;20522;-86
2022/11/11 05:41:08;;;;;;;41.43;8.30;;;10.10;63.50;;;;;;5067324;28;20808;-90
2022/11/11 05:43:54;;;;;;;21.70;5.60;;;10.40;62.90;;;;;;5100872;28;20954;-91
2022/11/11 05:46:41;;;;;;;77.27;7.47;;;10.60;61.70;;;;;;5086703;28;20450;-88
2022/11/11 05:49:27;;;;;;;17.07;6.77;;;10.50;61.80;;;;;;5066146;28;20440;-87
2022/11/11 05:52:15;;;;;;;10.83;5.43;;;10.50;60.80;;;;;;5099565;28;20478;-89
2022/11/11 05:55:01;;;;;;;5.73;4.53;;;10.70;60.60;;;;;;5084563;28;20832;-91
2022/11/11 05:57:47;;;;;;;8.97;4.83;;;10.50;60.20;;;;;;5083645;28;20590;-89
2022/11/11 06:00:32;;;;;;;18.20;5.40;;;10.30;60.40;;;;;;5064357;28;20545;-90
2022/11/11 06:03:19;;;;;;;35.17;6.57;;;10.30;60.80;;;;;;5069217;28;20551;-89
2022/11/11 06:06:05;;;;;;;15.47;6.37;;;10.40;60.60;;;;;;5082835;28;20458;-88
2022/11/11 06:08:51;;;;;;;26.03;6.33;;;10.40;60.80;;;;;;5103767;28;20502;-88
2022/11/11 06:11:36;;;;;;;22.97;8.90;;;10.30;61.70;;;;;;5085342;28;21267;-91
2022/11/11 06:14:22;;;;;;;12.43;6.80;;;10.10;62.30;;;;;;5082600;28;20619;-88
2022/11/11 06:17:08;;;;;;;19.90;7.10;;;10.40;62.10;;;;;;5067895;28;20433;-89
2022/11/11 06:19:55;;;;;;;21.87;6.70;;;10.20;61.70;;;;;;5081779;28;20518;-92
2022/11/11 06:22:56;;;;;;;23.83;6.50;;;10.10;62.20;;;;;;5083668;28;21041;-89
2022/11/11 06:28:46;;;;;;;11.73;6.77;;;9.90;65.00;;;;;;5072031;28;21083;-89
2022/11/11 06:31:32;;;;;;;32.20;6.23;;;10.10;63.20;;;;;;5074178;28;20451;-91
2022/11/11 06:34:18;;;;;;;17.73;6.63;;;10.00;62.00;;;;;;5073731;28;20459;-89
2022/11/11 06:37:06;;;;;;;19.80;5.83;;;10.10;62.30;;;;;;5074987;28;20478;-88
2022/11/11 06:39:52;;;;;;;24.73;6.23;;;10.20;62.30;;;;;;5074623;28;20435;-87
2022/11/11 06:42:38;;;;;;;35.87;7.53;;;9.90;62.90;;;;;;5086931;28;20469;-89
2022/11/11 06:45:24;;;;;;;23.17;6.37;;;10.00;61.90;;;;;;5070279;28;20435;-88
2022/11/11 06:48:09;;;;;;;11.73;5.03;;;10.20;61.50;;;;;;5103331;28;20446;-90
2022/11/11 06:50:55;;;;;;;40.50;7.20;;;10.20;61.60;;;;;;5068118;28;20473;-88
2022/11/11 06:53:42;;;;;;;20.40;7.17;;;10.30;60.80;;;;;;5087265;28;20482;-88
2022/11/11 06:56:35;;;;;;;42.77;7.43;;;9.90;62.90;;;;;;5083249;28;21181;-87
2022/11/11 06:59:21;;;;;;;18.37;6.40;;;10.10;61.90;;;;;;5070471;28;20471;-89
2022/11/11 07:02:08;;;;;;;50.53;8.40;;;10.10;61.70;;;;;;5106260;28;20623;-88
2022/11/11 07:04:53;;;;;;;19.73;8.23;;;9.90;63.10;;;;;;5080178;28;20443;-89
2022/11/11 07:07:39;;;;;;;48.17;8.40;;;9.80;64.00;;;;;;5081872;28;21100;-88
2022/11/11 07:10:26;;;;;;;10.20;6.40;;;9.60;64.60;;;;;;5083516;28;21044;-88
2022/11/11 07:13:12;;;;;;;19.37;7.67;;;9.90;64.70;;;;;;5104794;28;20513;-88
2022/11/11 07:15:58;;;;;;;21.60;8.13;;;10.30;62.70;;;;;;5075975;28;20441;-88
2022/11/11 07:18:43;;;;;;;40.80;9.07;;;10.40;61.80;;;;;;5073427;28;20431;-89
2022/11/11 07:21:29;;;;;;;177.13;38.37;;;10.50;61.90;;;;;;5074329;28;20452;-89
2022/11/11 07:24:15;;;;;;;47.27;16.47;;;10.70;61.20;;;;;;5075584;28;20582;-91
2022/11/11 07:27:02;;;;;;;74.73;38.00;;;10.70;60.70;;;;;;5099333;28;20451;-89
2022/11/11 07:29:48;;;;;;;32.63;9.27;;;10.70;61.20;;;;;;5064474;28;20432;-89
2022/11/11 07:32:34;;;;;;;122.23;38.03;;;10.30;61.30;;;;;;5083902;28;20478;-88
2022/11/11 07:35:21;;;;;;;53.60;10.70;;;10.30;61.50;;;;;;5080884;28;20931;-89
2022/11/11 07:38:07;;;;;;;14.33;9.03;;;10.10;62.00;;;;;;5069109;28;20792;-88
2022/11/11 07:40:53;;;;;;;37.83;9.80;;;10.20;62.30;;;;;;5105757;28;20451;-88
2022/11/11 07:43:39;;;;;;;34.13;9.23;;;10.00;62.40;;;;;;5080243;28;21066;-89
2022/11/11 07:46:26;;;;;;;35.77;12.00;;;9.60;65.00;;;;;;5084387;28;20490;-88
2022/11/11 07:49:11;;;;;;;25.53;10.80;;;9.60;65.10;;;;;;5079589;28;20439;-94
2022/11/11 07:51:57;;;;;;;21.37;11.40;;;9.80;65.30;;;;;;5102780;28;20557;-88
2022/11/11 07:54:42;;;;;;;86.43;13.63;;;10.00;63.90;;;;;;5087401;28;20480;-87
2022/11/11 07:57:28;;;;;;;28.63;11.53;;;10.00;63.00;;;;;;5100813;28;20451;-90
2022/11/11 08:00:16;;;;;;;14.27;8.23;;;9.80;65.10;;;;;;5099855;28;20935;-90
2022/11/11 08:03:02;;;;;;;34.87;10.13;;;9.80;65.20;;;;;;5069878;28;20999;-89
2022/11/11 08:05:47;;;;;;;25.50;9.43;;;9.70;66.00;;;;;;5087596;28;20444;-89
2022/11/11 08:08:33;;;;;;;18.70;8.97;;;9.80;64.50;;;;;;5085219;28;20439;-88
2022/11/11 08:13:39;;;;;;;17.73;9.93;;;9.60;65.20;;;;;;5067980;28;20467;-88
2022/11/11 08:14:23;;;;;;;42.57;10.40;;;9.90;65.10;;;;;;5100560;28;20462;-89
2022/11/11 08:17:10;;;;;;;33.43;10.93;;;9.90;64.70;;;;;;5077821;28;20438;-88
2022/11/11 08:19:56;;;;;;;38.87;10.37;;;9.70;65.60;;;;;;5097235;28;20666;-89
2022/11/11 08:22:42;;;;;;;38.23;10.43;;;9.90;64.80;;;;;;5065607;28;21002;-89
2022/11/11 08:25:29;;;;;;;22.57;9.47;;;10.10;63.90;;;;;;5080847;28;20464;-90
2022/11/11 08:28:14;;;;;;;91.33;20.77;;;10.40;62.90;;;;;;5098686;28;20597;-88
2022/11/11 08:31:01;;;;;;;16.77;8.70;;;10.40;63.20;;;;;;5081516;28;20474;-88
2022/11/11 08:33:49;;;;;;;21.83;10.27;;;10.40;62.70;;;;;;5073147;28;20464;-90
2022/11/11 08:36:34;;;;;;;31.93;9.27;;;10.20;62.60;;;;;;5071263;28;20493;-89
2022/11/11 08:39:20;;;;;;;37.50;10.90;;;9.90;64.80;;;;;;5082334;28;20454;-88
2022/11/11 08:42:06;;;;;;;25.40;9.80;;;9.80;64.80;;;;;;5099424;28;20467;-89
2022/11/11 08:44:51;;;;;;;27.80;9.47;;;9.40;65.70;;;;;;5080396;28;20823;-87
2022/11/11 08:47:37;;;;;;;20.13;9.90;;;9.20;66.70;;;;;;5070543;28;21108;-88
2022/11/11 08:50:24;;;;;;;27.67;9.50;;;9.30;67.40;;;;;;5083871;28;20454;-88
2022/11/11 08:53:11;;;;;;;71.30;14.20;;;9.80;66.40;;;;;;5067461;28;20523;-89
2022/11/11 08:55:56;;;;;;;21.60;10.50;;;10.00;64.90;;;;;;5084121;28;20544;-89
2022/11/11 08:58:42;;;;;;;36.93;11.13;;;10.00;64.00;;;;;;5078422;28;20466;-89
2022/11/11 09:01:27;;;;;;;57.07;11.70;;;9.90;65.20;;;;;;5099925;28;20450;-89
2022/11/11 09:04:13;;;;;;;26.80;11.43;;;9.50;66.00;;;;;;5070527;28;20462;-89
2022/11/11 09:07:00;;;;;;;68.40;26.87;;;9.90;65.90;;;;;;5103050;28;20491;-88
2022/11/11 09:09:45;;;;;;;38.93;19.20;;;10.30;63.70;;;;;;5067514;28;20438;-88
2022/11/11 09:12:31;;;;;;;26.53;9.67;;;10.50;62.80;;;;;;5083218;28;20531;-87
2022/11/11 09:15:17;;;;;;;33.93;11.47;;;10.10;62.50;;;;;;5102945;28;20938;-90
2022/11/11 09:18:03;;;;;;;26.53;10.27;;;9.70;65.10;;;;;;5069939;28;20458;-88
2022/11/11 09:20:49;;;;;;;18.50;11.60;;;9.70;65.90;;;;;;5077180;28;20455;-90
2022/11/11 09:23:36;;;;;;;22.90;10.80;;;10.10;64.30;;;;;;5070559;28;20598;-91
2022/11/11 09:26:22;;;;;;;43.40;12.93;;;10.30;63.20;;;;;;5071735;28;20450;-88
2022/11/11 09:29:08;;;;;;;31.00;14.53;;;10.60;62.80;;;;;;5068718;28;20451;-89
2022/11/11 09:31:53;;;;;;;22.23;12.73;;;10.80;62.70;;;;;;5078407;28;20470;-88
2022/11/11 09:34:39;;;;;;;23.07;12.43;;;11.00;62.20;;;;;;5076264;28;20471;-87
2022/11/11 09:37:25;;;;;;;43.33;18.40;;;11.00;61.40;;;;;;5084702;28;21093;-88
2022/11/11 09:40:20;;;;;;;25.30;12.63;;;11.10;61.30;;;;;;5069034;28;20431;-87
2022/11/11 09:43:15;;;;;;;24.57;12.13;;;11.00;61.40;;;;;;5086918;28;20527;-88
2022/11/11 09:46:16;;;;;;;22.10;10.27;;;10.70;62.30;;;;;;5070058;28;20443;-88
2022/11/11 09:49:28;;;;;;;37.87;18.67;;;10.40;63.40;;;;;;5070302;28;20491;-87
2022/11/11 09:52:18;;;;;;;26.93;10.67;;;10.20;65.00;;;;;;5076264;28;20930;-89
2022/11/11 09:55:13;;;;;;;25.73;10.67;;;10.50;64.30;;;;;;5091640;28;20453;-88
2022/11/11 09:58:04;;;;;;;18.40;9.60;;;10.40;64.80;;;;;;5072485;28;20968;-90
2022/11/11 10:00:59;;;;;;;53.43;12.73;;;10.10;65.60;;;;;;5091923;28;20445;-89
2022/11/11 10:03:49;;;;;;;18.33;8.73;;;10.40;65.60;;;;;;5074212;28;20825;-88
2022/11/11 10:06:36;;;;;;;15.30;7.60;;;10.50;65.30;;;;;;5063081;28;20446;-90
2022/11/11 10:09:28;;;;;;;18.97;7.87;;;10.30;65.20;;;;;;5067979;28;20450;-88
2022/11/11 10:12:15;;;;;;;24.10;13.57;;;10.50;65.20;;;;;;5075999;28;21117;-90
2022/11/11 10:15:05;;;;;;;16.20;11.00;;;10.60;65.90;;;;;;5096465;28;20443;-88
2022/11/11 10:18:04;;;;;;;24.57;11.27;;;10.70;65.00;;;;;;5063507;28;20812;-90
2022/11/11 10:20:55;;;;;;;14.47;7.37;;;11.10;64.70;;;;;;5060737;28;20533;-91
2022/11/11 10:23:42;;;;;;;10.47;5.77;;;11.40;63.70;;;;;;5062938;28;20466;-90
2022/11/11 10:26:36;;;;;;;7.23;5.03;;;11.60;63.00;;;;;;5079203;28;20495;-90
2022/11/11 10:29:25;;;;;;;6.37;4.27;;;11.60;61.60;;;;;;5064486;28;20471;-93
2022/11/11 10:32:17;;;;;;;10.33;4.40;;;11.40;62.80;;;;;;5074713;28;20548;-90
2022/11/11 10:35:15;;;;;;;10.60;5.60;;;11.50;62.60;;;;;;5070330;28;20531;-89
2022/11/11 10:38:20;;;;;;;17.40;6.07;;;11.00;63.70;;;;;;5061522;28;21021;-89
2022/11/11 10:41:15;;;;;;;9.90;6.47;;;10.60;64.70;;;;;;5064207;28;20966;-89
2022/11/11 10:44:00;;;;;;;12.43;8.73;;;10.60;65.70;;;;;;5102201;28;20634;-90
2022/11/11 10:46:55;;;;;;;13.07;7.67;;;10.80;65.90;;;;;;5076614;28;20454;-93
2022/11/11 10:49:49;;;;;;;10.30;7.30;;;11.10;65.20;;;;;;5080058;28;20443;-93
2022/11/11 10:52:40;;;;;;;10.70;6.57;;;11.40;63.80;;;;;;5084974;28;20586;-89
2022/11/11 10:55:30;;;;;;;13.67;9.40;;;11.10;64.40;;;;;;5073283;28;20455;-89
2022/11/11 10:58:21;;;;;;;15.27;9.50;;;10.90;65.40;;;;;;5067706;28;21067;-88
2022/11/11 11:01:10;;;;;;;13.90;8.70;;;11.10;65.50;;;;;;5062037;28;20497;-90
2022/11/11 11:04:01;;;;;;;15.53;9.30;;;11.50;64.20;;;;;;5067643;28;20472;-90
2022/11/11 11:06:52;;;;;;;16.20;9.40;;;11.40;63.80;;;;;;5097250;28;20443;-89
2022/11/11 11:09:42;;;;;;;18.77;11.93;;;11.30;64.90;;;;;;5070052;28;20512;-91
2022/11/11 11:12:34;;;;;;;17.60;9.97;;;11.50;64.50;;;;;;5093721;28;20491;-89
2022/11/11 11:15:23;;;;;;;17.30;9.70;;;11.30;64.70;;;;;;5088768;28;20466;-88
2022/11/11 11:18:12;;;;;;;13.87;9.80;;;11.10;65.40;;;;;;5100663;28;20541;-88
2022/11/11 11:20:59;;;;;;;18.33;10.33;;;11.00;65.70;;;;;;5079018;28;20447;-89
2022/11/11 11:23:47;;;;;;;20.80;12.30;;;11.00;66.70;;;;;;5070524;28;20828;-91
2022/11/11 11:26:44;;;;;;;20.17;10.23;;;11.20;66.30;;;;;;5097029;28;20438;-88
2022/11/11 11:29:33;;;;;;;25.90;11.60;;;11.20;66.10;;;;;;5061899;28;20435;-90
2022/11/11 11:32:22;;;;;;;22.77;13.50;;;11.20;66.00;;;;;;5068705;28;20475;-91
2022/11/11 11:35:08;;;;;;;28.10;13.40;;;11.40;65.00;;;;;;5082049;28;20475;-89
2022/11/11 11:37:53;;;;;;;24.03;13.93;;;11.40;65.50;;;;;;5064155;28;20439;-88
2022/11/11 11:40:49;;;;;;;28.73;15.00;;;11.30;65.50;;;;;;5097321;28;20851;-88
2022/11/11 11:43:36;;;;;;;33.67;16.83;;;11.50;65.30;;;;;;5087823;28;20469;-89
2022/11/11 11:46:28;;;;;;;29.17;16.20;;;11.40;65.80;;;;;;5066022;28;20438;-89
2022/11/11 11:49:25;;;;;;;29.80;17.30;;;11.30;65.90;;;;;;5069270;28;20440;-91
2022/11/11 11:52:19;;;;;;;36.63;20.10;;;11.50;65.80;;;;;;5053725;28;20502;-90
2022/11/11 11:55:11;;;;;;;37.63;18.83;;;11.70;65.50;;;;;;5094682;28;20455;-91
2022/11/11 11:58:18;;;;;;;39.83;16.70;;;11.80;64.90;;;;;;5099654;28;20445;-89
2022/11/11 12:01:07;;;;;;;32.80;16.53;;;11.70;65.30;;;;;;5083175;28;20531;-89
2022/11/11 12:04:25;;;;;;;36.47;19.07;;;11.60;65.40;;;;;;5089361;28;20470;-87
2022/11/11 12:07:19;;;;;;;38.07;17.17;;;11.80;66.20;;;;;;5105566;28;20449;-88
2022/11/11 12:10:18;;;;;;;29.83;15.70;;;12.00;64.90;;;;;;5083409;28;21090;-90
2022/11/11 12:13:16;;;;;;;36.00;18.13;;;12.10;65.30;;;;;;5091046;28;20475;-89
2022/11/11 12:16:12;;;;;;;26.50;14.53;;;12.30;64.50;;;;;;5079950;28;21049;-90
2022/11/11 12:19:11;;;;;;;25.07;14.40;;;12.40;64.60;;;;;;5080302;28;20891;-87
2022/11/11 12:22:07;;;;;;;25.43;13.37;;;12.40;64.60;;;;;;5083015;28;20444;-88
2022/11/11 12:24:59;;;;;;;24.07;14.70;;;12.60;64.70;;;;;;5077897;28;20457;-89
2022/11/11 12:27:53;;;;;;;22.33;12.13;;;12.80;63.70;;;;;;5071200;28;20496;-89
2022/11/11 12:30:47;;;;;;;21.03;12.23;;;12.50;63.90;;;;;;5101632;28;20470;-88
2022/11/11 12:33:51;;;;;;;20.63;11.23;;;12.40;64.40;;;;;;5081501;28;20463;-89
2022/11/11 12:36:44;;;;;;;21.07;13.47;;;12.20;65.20;;;;;;5070649;28;20442;-89
2022/11/11 12:40:03;;;;;;;23.07;13.07;;;12.50;64.90;;;;;;5067885;28;20448;-89
2022/11/11 12:43:03;;;;;;;21.00;11.80;;;12.70;64.60;;;;;;5096071;28;20973;-89
2022/11/11 12:45:56;;;;;;;20.53;11.63;;;12.80;64.00;;;;;;5081958;28;20447;-90
2022/11/11 12:48:54;;;;;;;25.70;12.97;;;12.80;64.80;;;;;;5085361;28;20695;-89
2022/11/11 12:51:55;;;;;;;20.50;11.90;;;12.60;64.60;;;;;;5076147;28;20477;-89
2022/11/11 12:54:52;;;;;;;23.00;12.97;;;12.40;65.50;;;;;;5081180;28;21005;-88
2022/11/11 12:57:51;;;;;;;20.83;11.53;;;12.70;65.30;;;;;;5078984;28;20455;-89
2022/11/11 13:00:49;;;;;;;14.43;9.70;;;12.90;64.50;;;;;;5061301;28;20947;-87
2022/11/11 13:04:00;;;;;;;19.97;10.90;;;12.70;64.70;;;;;;5074698;28;20468;-90
2022/11/11 13:07:01;;;;;;;21.27;12.47;;;12.40;65.70;;;;;;5076871;28;20442;-88
2022/11/11 13:10:02;;;;;;;21.33;13.27;;;12.20;66.50;;;;;;5095118;28;20456;-87
2022/11/11 13:12:55;;;;;;;17.90;10.27;;;12.50;66.30;;;;;;5078836;28;21352;-89
2022/11/11 13:15:41;;;;;;;16.57;11.47;;;12.60;65.60;;;;;;5068507;28;20533;-89
2022/11/11 13:18:32;;;;;;;17.27;9.93;;;12.50;65.80;;;;;;5061388;28;20444;-89
2022/11/11 13:21:24;;;;;;;18.00;11.17;;;12.50;66.40;;;;;;5100310;28;20475;-89
2022/11/11 13:24:12;;;;;;;23.83;12.00;;;12.80;66.30;;;;;;5098743;28;21292;-91
2022/11/11 13:27:03;;;;;;;20.73;11.83;;;13.10;65.10;;;;;;5078312;28;20439;-89
2022/11/11 13:30:36;;;;;;;25.80;14.70;;;13.40;64.30;;;;;;5066391;28;20705;-89
2022/11/11 13:33:25;;;;;;;20.50;12.07;;;13.00;64.30;;;;;;5062759;28;21053;-89
2022/11/11 13:36:14;;;;;;;23.80;12.70;;;13.10;65.20;;;;;;5080555;28;20940;-91
2022/11/11 13:39:03;;;;;;;21.80;12.97;;;13.30;64.80;;;;;;5088956;28;20466;-89
2022/11/11 13:41:53;;;;;;;27.70;16.23;;;13.10;64.30;;;;;;5079608;28;22371;-90
2022/11/11 13:44:49;;;;;;;23.90;15.10;;;12.80;66.10;;;;;;5066584;28;20454;-90
2022/11/11 13:47:38;;;;;;;30.23;17.77;;;13.00;65.30;;;;;;5062873;28;20439;-89
2022/11/11 13:50:27;;;;;;;30.57;17.57;;;12.80;66.00;;;;;;5083539;28;20576;-88
2022/11/11 13:53:24;;;;;;;26.93;13.47;;;12.80;65.80;;;;;;5084438;28;20475;-89
2022/11/11 13:56:12;;;;;;;21.23;12.90;;;13.00;65.80;;;;;;5064625;28;20435;-88
2022/11/11 13:58:59;;;;;;;25.10;14.00;;;12.60;66.50;;;;;;5054978;28;20525;-88
2022/11/11 14:01:44;;;;;;;22.73;13.73;;;12.60;67.40;;;;;;5096170;28;20434;-89
2022/11/11 14:04:31;;;;;;;31.23;13.60;;;12.90;66.90;;;;;;5097255;28;20432;-87
2022/11/11 14:07:56;;;;;;;28.57;14.27;;;12.70;66.50;;;;;;5085200;28;20444;-88
2022/11/11 14:10:51;;;;;;;26.57;14.13;;;12.50;67.50;;;;;;5083468;28;21019;-90
2022/11/11 14:13:40;;;;;;;21.60;13.67;;;12.80;67.40;;;;;;5085773;28;20562;-89
2022/11/11 14:17:02;;;;;;;27.17;14.23;;;12.80;66.50;;;;;;5076669;28;20450;-88
2022/11/11 14:19:48;;;;;;;23.60;15.50;;;12.90;66.70;;;;;;5067010;28;20751;-89
2022/11/11 14:22:34;;;;;;;21.37;12.70;;;12.70;66.90;;;;;;5079132;28;20481;-87
2022/11/11 14:25:24;;;;;;;22.97;12.40;;;12.50;67.50;;;;;;5081079;28;20483;-90
2022/11/11 14:28:22;;;;;;;55.13;14.93;;;12.50;67.90;;;;;;5085328;28;20826;-88
2022/11/11 14:31:32;;;;;;;30.40;13.70;;;12.50;67.70;;;;;;5066881;28;20456;-87
2022/11/11 14:34:36;;;;;;;20.67;13.30;;;12.50;67.60;;;;;;5073230;28;20794;-88
2022/11/11 14:37:31;;;;;;;49.33;16.67;;;12.50;67.80;;;;;;5100577;28;20934;-88
2022/11/11 14:40:25;;;;;;;33.63;14.10;;;12.30;68.70;;;;;;5072423;28;20460;-88
2022/11/11 14:43:34;;;;;;;44.73;16.37;;;12.00;69.60;;;;;;5056482;28;20454;-88
2022/11/11 14:46:20;;;;;;;47.23;19.57;;;12.10;69.40;;;;;;5080531;28;20443;-88
2022/11/11 14:49:08;;;;;;;34.20;16.57;;;12.20;69.60;;;;;;5079491;28;20442;-88
2022/11/11 14:51:58;;;;;;;30.90;17.23;;;12.50;69.10;;;;;;5083564;28;20451;-89
2022/11/11 14:55:01;;;;;;;51.97;22.87;;;12.90;67.80;;;;;;5074973;28;20980;-87
2022/11/11 14:57:49;;;;;;;42.13;20.43;;;12.90;67.50;;;;;;5100824;28;20448;-89
2022/11/11 15:00:47;;;;;;;49.30;18.87;;;13.20;66.90;;;;;;5074404;28;20441;-89
2022/11/11 15:03:38;;;;;;;29.83;15.50;;;13.30;66.10;;;;;;5092644;28;20465;-88
2022/11/11 15:06:30;;;;;;;102.10;20.90;;;13.20;66.30;;;;;;5088890;28;20453;-87
2022/11/11 15:09:45;;;;;;;267.30;29.37;;;13.30;65.90;;;;;;5106510;28;20579;-89
2022/11/11 15:12:55;;;;;;;27.87;15.50;;;13.30;65.90;;;;;;5071022;28;20478;-88
2022/11/11 15:15:47;;;;;;;69.30;20.97;;;13.40;65.90;;;;;;5110233;28;20538;-89
2022/11/11 15:19:13;;;;;;;83.63;37.80;;;13.40;65.40;;;;;;5072466;28;20439;-88
2022/11/11 15:22:10;;;;;;;67.73;31.27;;;13.50;65.30;;;;;;5089635;28;20805;-86
2022/11/11 15:25:06;;;;;;;42.43;24.73;;;13.40;65.40;;;;;;5066280;28;20513;-88
2022/11/11 15:27:56;;;;;;;38.57;22.90;;;13.50;65.60;;;;;;5072517;28;20435;-87
2022/11/11 15:30:59;;;;;;;57.40;28.13;;;13.50;65.50;;;;;;5085895;28;20595;-90
2022/11/11 15:33:55;;;;;;;63.70;28.73;;;13.40;65.20;;;;;;5074826;28;21099;-88
2022/11/11 15:36:52;;;;;;;49.67;24.47;;;13.40;65.50;;;;;;5073073;28;20483;-87
2022/11/11 15:39:43;;;;;;;68.97;28.57;;;13.60;65.60;;;;;;5085426;28;20990;-87
2022/11/11 15:42:32;;;;;;;54.70;24.60;;;13.40;65.30;;;;;;5103076;28;20805;-90
2022/11/11 15:45:23;;;;;;;58.53;25.93;;;13.60;65.00;;;;;;5075891;28;20451;-87
2022/11/11 15:48:16;;;;;;;30.50;17.30;;;13.60;64.40;;;;;;5091089;28;20457;-87
2022/11/11 15:51:15;;;;;;;27.40;14.63;;;13.70;64.30;;;;;;5074716;28;20463;-88